Time;durP1;ratioP1;P1;durP2;ratioP2;P2;SDS_P1;SDS_P2;PMS_P1;PMS_P2;Temp;Humidity;BMP_temperature;BMP_pressure;BME280_temperature;BME280_humidity;BME280_pressure;Samples;Min_cycle;Max_cycle;Signal;HPM_P1;HPM_P2
2022/11/10 00:00:12;;;;;;;27.67;14.27;;;;;;;8.04;82.11;101756.00;6329700;22;20037;-94
2022/11/10 00:03:05;;;;;;;25.30;14.48;;;;;;;8.04;82.08;101756.00;6350706;22;19998;-95
2022/11/10 00:06:07;;;;;;;26.73;14.27;;;;;;;8.09;82.04;101755.66;6294755;22;20060;-94
2022/11/10 00:08:55;;;;;;;30.75;13.93;;;;;;;7.90;81.52;101705.34;6360048;22;20010;-95
2022/11/10 00:11:47;;;;;;;25.25;15.05;;;;;;;7.97;81.69;101738.72;6296045;22;20041;-94
2022/11/10 00:28:10;;;;;;;40.77;16.60;;;;;;;7.54;81.88;101673.25;6218227;22;21390;-90
2022/11/10 00:52:56;;;;;;;23.88;14.10;;;;;;;7.20;84.96;101712.38;6292136;22;20479;-91
2022/11/10 00:55:25;;;;;;;25.85;13.18;;;;;;;7.01;84.25;101678.09;6253434;22;20103;-95
2022/11/10 00:58:42;;;;;;;26.00;13.98;;;;;;;6.98;84.83;101681.84;6292048;22;20079;-95
2022/11/10 01:01:29;;;;;;;23.67;13.07;;;;;;;7.21;84.26;101706.06;6315420;22;20211;-95
2022/11/10 01:04:02;;;;;;;26.88;14.00;;;;;;;7.30;84.49;101729.44;6310060;22;20654;-93
2022/11/10 01:06:32;;;;;;;24.40;13.73;;;;;;;7.39;84.63;101723.41;6279443;22;20030;-95
2022/11/10 01:09:25;;;;;;;26.42;13.02;;;;;;;7.13;83.94;101662.97;6317447;22;20430;-96
2022/11/10 01:12:02;;;;;;;23.00;13.32;;;;;;;7.27;83.85;101686.00;6282903;22;20015;-95
2022/11/10 01:52:32;;;;;;;11.35;6.90;;;;;;;7.37;82.85;101677.19;6289334;22;20097;-96
2022/11/10 01:56:03;;;;;;;9.50;5.97;;;;;;;7.59;82.96;101707.69;6170682;23;20111;-95
2022/11/10 02:09:15;;;;;;;8.95;5.78;;;;;;;7.22;83.48;101656.09;6357357;22;20159;-94
2022/11/10 02:50:48;;;;;;;9.35;4.20;;;;;;;7.33;83.98;101673.03;6195540;23;20060;-92
2022/11/10 02:53:49;;;;;;;10.38;4.85;;;;;;;7.47;83.78;101673.81;6148256;23;20009;-94
2022/11/10 02:57:17;;;;;;;6.38;3.92;;;;;;;7.43;83.70;101669.69;6176746;23;20013;-91
2022/11/10 03:00:50;;;;;;;7.65;4.20;;;;;;;7.47;83.82;101666.66;6165815;23;20580;-94
2022/11/10 03:03:26;;;;;;;8.30;4.32;;;;;;;7.34;83.40;101633.75;6273353;22;20086;-95
2022/11/10 03:06:17;;;;;;;7.57;4.25;;;;;;;7.59;83.53;101673.75;6240153;22;20012;-95
2022/11/10 03:16:39;;;;;;;9.98;5.90;;;;;;;7.45;82.81;101681.13;6297773;22;20030;-92
2022/11/10 03:20:04;;;;;;;10.90;5.93;;;;;;;7.43;82.55;101673.19;6323904;22;20007;-91
2022/11/10 03:22:39;;;;;;;10.70;6.60;;;;;;;7.39;82.18;101669.03;6290527;22;20015;-92
2022/11/10 03:25:28;;;;;;;12.10;7.30;;;;;;;7.55;82.03;101701.69;6320136;22;20342;-95
2022/11/10 03:27:58;;;;;;;14.85;8.95;;;;;;;7.46;82.10;101709.56;6258051;22;20022;-94
2022/11/10 03:30:29;;;;;;;15.48;9.43;;;;;;;7.17;82.79;101689.38;6312611;22;20008;-95
2022/11/10 03:33:11;;;;;;;17.00;9.48;;;;;;;7.42;82.61;101722.31;6279602;22;19995;-93
2022/11/10 03:42:42;;;;;;;19.10;10.10;;;;;;;7.23;82.92;101700.56;6357082;22;20033;-94
2022/11/10 03:55:12;;;;;;;13.57;7.70;;;;;;;7.21;82.30;101675.75;6291594;22;20322;-93
2022/11/10 04:00:59;;;;;;;;;;;;;;;7.40;82.42;101717.09;6362761;22;20255;-92
2022/11/10 04:03:56;;;;;;;18.40;8.18;;;;;;;7.04;82.28;101671.66;6262138;22;19915;-93
2022/11/10 04:10:25;;;;;;;15.90;9.60;;;;;;;7.02;82.20;101695.84;6363915;22;20026;-94
2022/11/10 04:15:42;;;;;;;23.03;10.73;;;;;;;6.63;83.05;101667.53;6340347;22;20106;-90
2022/11/10 04:44:37;;;;;;;26.50;11.07;;;;;;;6.87;83.23;101731.72;6218211;22;20042;-95
2022/11/10 04:47:44;;;;;;;22.00;11.10;;;;;;;6.79;82.98;101724.28;6288776;22;20530;-95
2022/11/10 04:50:36;;;;;;;19.75;11.00;;;;;;;6.76;82.85;101708.44;6289861;22;20071;-95
2022/11/10 04:55:33;;;;;;;20.35;11.00;;;;;;;6.96;82.98;101726.56;6293897;22;20231;-94
2022/11/10 04:58:04;;;;;;;23.05;10.63;;;;;;;6.93;82.92;101721.44;6274289;22;20038;-90
2022/11/10 05:00:43;;;;;;;24.02;10.57;;;;;;;6.94;82.61;101712.44;6300229;22;21134;-94
2022/11/10 05:04:04;;;;;;;16.85;9.00;;;;;;;7.08;82.36;101732.00;6266063;22;20058;-93
2022/11/10 05:07:03;;;;;;;21.05;10.10;;;;;;;6.96;82.40;101697.16;6283310;22;19999;-93
2022/11/10 05:13:04;;;;;;;26.10;9.85;;;;;;;7.19;82.68;101748.13;6306793;22;20018;-92
2022/11/10 05:15:55;;;;;;;56.90;26.63;;;;;;;7.32;82.34;101756.06;6317771;22;20015;-93
2022/11/10 05:18:22;;;;;;;31.50;15.07;;;;;;;7.26;82.01;101733.31;6258072;22;20022;-95
2022/11/10 05:21:10;;;;;;;22.20;10.40;;;;;;;7.26;81.93;101736.00;6331816;22;20002;-93
2022/11/10 05:24:18;;;;;;;20.83;10.57;;;;;;;7.21;81.96;101714.09;6281281;22;20109;-95
2022/11/10 05:26:51;;;;;;;20.42;11.05;;;;;;;7.43;82.22;101741.91;6348555;22;20022;-94
2022/11/10 05:29:49;;;;;;;23.10;11.43;;;;;;;7.33;81.75;101731.91;6355753;22;20003;-94
2022/11/10 05:32:37;;;;;;;30.92;12.98;;;;;;;7.32;81.69;101718.63;6315525;22;20022;-94
2022/11/10 05:35:30;;;;;;;26.15;14.07;;;;;;;7.80;81.26;101778.34;6256714;23;20003;-94
2022/11/10 05:38:01;;;;;;;29.58;12.95;;;;;;;7.79;81.03;101762.38;6141257;23;20548;-93
2022/11/10 05:40:34;;;;;;;29.50;13.05;;;;;;;7.81;80.50;101755.94;6137448;23;20019;-94
2022/11/10 05:43:30;;;;;;;30.08;13.48;;;;;;;7.85;80.22;101750.38;6112936;23;20024;-95
2022/11/10 05:46:04;;;;;;;35.88;13.85;;;;;;;8.15;80.07;101785.50;6144348;23;20017;-93
2022/11/10 05:48:35;;;;;;;29.40;13.53;;;;;;;8.15;79.79;101763.22;6167158;23;20016;-95
2022/11/10 05:51:10;;;;;;;40.72;14.68;;;;;;;8.32;79.89;101772.63;6157664;23;20447;-95
2022/11/10 05:54:08;;;;;;;38.33;16.83;;;;;;;8.19;79.51;101738.78;6186180;23;20012;-96
2022/11/10 06:13:05;;;;;;;34.33;17.83;;;;;;;9.27;76.86;101829.47;6311628;22;20034;-94
2022/11/10 06:16:03;;;;;;;38.42;19.88;;;;;;;9.38;76.10;101828.63;6299020;22;20028;-94
2022/11/10 06:19:34;;;;;;;37.28;19.33;;;;;;;9.27;75.19;101795.47;6242526;22;20050;-94
2022/11/10 06:22:28;;;;;;;34.78;18.10;;;;;;;9.39;74.02;101808.84;6313173;22;20065;-93
2022/11/10 06:28:02;;;;;;;36.25;18.23;;;;;;;9.89;73.42;101822.63;6198383;22;20827;-91
2022/11/10 06:30:31;;;;;;;33.45;16.83;;;;;;;10.27;70.97;101791.66;6330706;22;20018;-91
2022/11/10 06:33:00;;;;;;;36.58;19.60;;;;;;;11.23;67.94;101803.03;6317454;22;20451;-94
2022/11/10 06:35:52;;;;;;;29.88;16.45;;;;;;;12.41;64.94;101811.94;6285350;22;20101;-94
2022/11/10 06:38:34;;;;;;;36.15;15.98;;;;;;;13.94;58.85;101828.53;6247721;22;20033;-93
2022/11/10 06:41:00;;;;;;;32.58;16.40;;;;;;;15.63;55.51;101839.91;6285652;22;20371;-92
2022/11/10 06:43:26;;;;;;;27.90;16.42;;;;;;;17.05;51.47;101809.69;6252401;22;20090;-91
2022/11/10 06:45:52;;;;;;;30.30;16.05;;;;;;;16.92;50.54;101806.66;6283634;22;20003;-90
2022/11/10 06:48:18;;;;;;;;;;;;;;;18.77;46.16;101835.69;6304349;22;20058;-92
2022/11/10 06:50:46;;;;;;;28.77;14.45;;;;;;;19.79;43.86;101806.84;6262480;22;19918;-90
2022/11/10 06:53:18;;;;;;;31.90;14.13;;;;;;;20.89;41.84;101818.25;6237401;22;20343;-91
2022/11/10 06:55:51;;;;;;;35.78;15.45;;;;;;;21.72;40.09;101824.50;6324668;22;20041;-95
2022/11/10 06:58:42;;;;;;;30.15;15.90;;;;;;;22.85;36.57;101829.19;6274904;22;20121;-92
2022/11/10 07:07:13;;;;;;;32.33;16.55;;;;;;;24.74;32.94;101821.38;6304665;22;20426;-92
2022/11/10 07:10:20;;;;;;;38.22;16.95;;;;;;;25.49;31.79;101824.72;6277977;22;20043;-91
2022/11/10 07:13:04;;;;;;;35.10;16.75;;;;;;;26.30;30.30;101816.97;6318544;22;20020;-93
2022/11/10 07:15:33;;;;;;;33.95;17.63;;;;;;;26.79;29.20;101804.91;6290285;22;20033;-95
2022/11/10 07:18:28;;;;;;;41.75;19.15;;;;;;;27.22;28.00;101798.94;6299596;22;20015;-93
2022/11/10 07:21:19;;;;;;;38.00;19.13;;;;;;;27.63;27.99;101787.84;6353406;22;20097;-94
2022/11/10 07:23:49;;;;;;;39.95;18.63;;;;;;;28.35;26.34;101785.28;6287299;22;20144;-93
2022/11/10 07:26:26;;;;;;;34.17;18.92;;;;;;;28.95;25.71;101797.47;6289685;22;20078;-94
2022/11/10 07:28:53;;;;;;;39.08;19.60;;;;;;;29.18;25.47;101793.66;6342552;22;20017;-91
2022/11/10 07:31:22;;;;;;;41.95;20.05;;;;;;;29.88;24.82;101813.25;6311550;22;20002;-91
2022/11/10 07:33:56;;;;;;;50.50;20.00;;;;;;;30.32;24.06;101817.81;6313847;22;20022;-93
2022/11/10 07:38:58;;;;;;;40.60;20.50;;;;;;;30.74;23.36;101808.66;6325786;22;20037;-92
2022/11/10 07:41:27;;;;;;;41.38;20.08;;;;;;;30.94;23.27;101792.13;6301795;22;20019;-87
2022/11/10 07:46:51;;;;;;;40.08;19.83;;;;;;;31.25;22.67;101809.75;6295767;22;20012;-94
2022/11/10 07:49:51;;;;;;;20.23;12.63;;;;;;;31.68;22.92;101788.22;6289548;22;20020;-95
2022/11/10 07:52:21;;;;;;;24.83;14.63;;;;;;;31.78;23.37;101822.72;6272373;22;20003;-96
2022/11/10 07:55:54;;;;;;;20.13;11.45;;;;;;;31.72;23.11;101794.88;6222991;22;20003;-96
2022/11/10 07:59:00;;;;;;;12.55;5.95;;;;;;;32.23;22.93;101796.03;6266537;22;20012;-96
2022/11/10 08:08:20;;;;;;;8.48;4.07;;;;;;;32.75;22.44;101804.03;6198815;23;20170;-95
2022/11/10 08:10:50;;;;;;;6.05;3.45;;;;;;;32.91;22.04;101790.91;6202990;23;20052;-94
2022/11/10 08:13:26;;;;;;;5.25;2.92;;;;;;;32.41;22.39;101814.94;6245463;22;20067;-93
2022/11/10 08:16:28;;;;;;;5.90;3.30;;;;;;;33.83;21.01;101798.81;6246463;22;19995;-96
2022/11/10 08:19:24;;;;;;;5.45;2.47;;;;;;;32.91;21.78;101818.75;6271388;22;20073;-96
2022/11/10 08:22:19;;;;;;;4.97;2.63;;;;;;;33.53;21.03;101802.59;6225948;22;20060;-96
2022/11/10 08:25:09;;;;;;;5.95;2.75;;;;;;;34.24;21.10;101834.75;6327794;22;20022;-96
2022/11/10 08:27:39;;;;;;;5.90;2.83;;;;;;;34.54;19.88;101804.88;5632382;22;16314584;-95
2022/11/10 08:30:08;;;;;;;12.23;5.25;;;;;;;35.51;19.00;101803.69;6336911;22;20007;-91
2022/11/10 08:32:39;;;;;;;4.93;2.30;;;;;;;35.97;18.43;101801.34;6303016;22;20101;-96
2022/11/10 08:35:17;;;;;;;4.13;2.17;;;;;;;36.79;17.53;101827.88;6330110;22;20120;-96
2022/11/10 08:38:14;;;;;;;3.05;2.00;;;;;;;36.38;17.65;101786.63;6333838;22;20003;-96
2022/11/10 08:40:43;;;;;;;3.83;2.40;;;;;;;36.89;17.18;101833.28;6297504;22;20003;-94
2022/11/10 08:43:39;;;;;;;3.58;2.20;;;;;;;35.95;17.64;101789.63;6245255;22;19996;-96
2022/11/10 08:46:11;;;;;;;5.55;2.10;;;;;;;36.01;16.97;101791.16;6293563;22;20042;-96
2022/11/10 08:48:38;;;;;;;5.43;1.98;;;;;;;34.76;18.64;101828.69;6253446;22;20015;-96
2022/11/10 08:51:10;;;;;;;3.33;1.95;;;;;;;34.11;19.23;101834.59;6268136;22;20012;-96
2022/11/10 08:53:44;;;;;;;4.07;2.00;;;;;;;33.50;19.81;101810.69;6235071;22;20100;-96
2022/11/10 08:56:10;;;;;;;5.25;2.60;;;;;;;34.01;19.63;101830.72;6286784;22;20008;-96
2022/11/10 08:58:38;;;;;;;5.50;2.53;;;;;;;31.95;21.60;101810.22;6242382;22;20063;-94
2022/11/10 09:01:13;;;;;;;6.30;2.42;;;;;;;33.75;20.11;101832.88;6299632;22;20067;-96
2022/11/10 09:03:58;;;;;;;4.75;2.90;;;;;;;33.12;20.49;101799.19;6265296;22;20042;-96
2022/11/10 09:06:39;;;;;;;4.13;2.67;;;;;;;34.97;18.59;101795.75;6290264;22;20038;-96
2022/11/10 09:09:12;;;;;;;2.95;2.08;;;;;;;32.99;19.95;101787.53;6284341;22;20080;-95
2022/11/10 09:14:35;;;;;;;4.32;2.70;;;;;;;35.56;17.78;101808.34;6305441;22;20066;-95
2022/11/10 09:17:12;;;;;;;7.97;2.40;;;;;;;35.31;17.72;101812.38;6274391;22;20040;-95
2022/11/10 09:19:43;;;;;;;4.20;2.58;;;;;;;35.92;17.63;101811.47;6302710;22;20007;-95
2022/11/10 09:22:13;;;;;;;;;;;;;;;36.70;16.96;101831.41;6328853;22;20007;-93
2022/11/10 09:24:41;;;;;;;7.28;2.30;;;;;;;36.46;16.80;101809.16;6325883;22;19933;-95
2022/11/10 09:27:10;;;;;;;6.40;2.00;;;;;;;37.05;16.16;101831.00;6325898;22;20030;-95
2022/11/10 09:29:39;;;;;;;3.38;2.00;;;;;;;35.54;17.73;101843.34;6321550;22;20011;-95
2022/11/10 09:32:17;;;;;;;2.13;1.70;;;;;;;35.19;17.99;101801.66;6320406;22;20007;-95
2022/11/10 09:34:43;;;;;;;2.42;2.00;;;;;;;33.89;18.92;101804.34;6289630;22;20014;-94
2022/11/10 09:37:14;;;;;;;2.75;2.20;;;;;;;33.99;19.17;101787.50;6295289;22;20031;-96
2022/11/10 09:39:40;;;;;;;3.47;1.90;;;;;;;34.47;18.46;101790.44;6318003;22;19999;-95
2022/11/10 09:42:21;;;;;;;3.50;2.17;;;;;;;34.81;17.92;101792.31;6268601;22;20033;-95
2022/11/10 09:44:53;;;;;;;3.13;2.20;;;;;;;34.25;18.15;101810.44;6296946;22;20125;-95
2022/11/10 09:47:24;;;;;;;3.15;1.92;;;;;;;34.05;18.93;101803.09;6301464;22;20063;-92
2022/11/10 09:49:53;;;;;;;2.70;1.75;;;;;;;33.93;18.89;101791.47;6293494;22;20015;-96
2022/11/10 09:52:19;;;;;;;4.15;2.20;;;;;;;34.12;18.65;101795.25;6321268;22;20014;-93
2022/11/10 10:01:10;;;;;;;2.88;1.90;;;;;;;33.15;19.77;101818.13;6363357;22;20052;-95
2022/11/10 10:04:48;;;;;;;4.60;2.00;;;;;;;34.05;18.77;101803.09;6276763;22;20077;-96
2022/11/10 10:07:51;;;;;;;3.25;2.20;;;;;;;34.31;18.40;101805.69;6168765;23;20001;-94
2022/11/10 10:14:08;;;;;;;3.63;1.90;;;;;;;34.99;17.85;101813.88;6347610;22;20017;-94
2022/11/10 10:17:18;;;;;;;4.03;2.47;;;;;;;35.43;17.73;101818.34;6321356;22;20010;-92
2022/11/10 10:20:25;;;;;;;6.10;2.10;;;;;;;33.93;18.95;101811.00;6320244;22;20007;-93
2022/11/10 10:22:54;;;;;;;4.00;2.15;;;;;;;34.58;18.89;101788.34;6345623;22;20006;-86
2022/11/10 10:25:27;;;;;;;3.35;2.10;;;;;;;34.00;18.96;101776.06;6335501;22;20019;-94
2022/11/10 10:27:59;;;;;;;3.33;2.00;;;;;;;33.71;18.96;101776.00;6265095;22;20026;-92
2022/11/10 10:30:26;;;;;;;3.75;2.30;;;;;;;34.59;18.43;101779.69;6286995;22;20014;-92
2022/11/10 10:33:00;;;;;;;4.28;2.55;;;;;;;33.75;19.91;101788.25;6289077;22;19999;-94
2022/11/10 10:35:28;;;;;;;5.10;2.47;;;;;;;33.31;20.22;101768.72;6284940;22;20377;-93
2022/11/10 10:37:56;;;;;;;4.55;2.38;;;;;;;33.07;20.19;101774.16;6310220;22;20434;-93
2022/11/10 10:40:23;;;;;;;3.53;2.80;;;;;;;32.90;20.89;101769.75;6283825;22;20007;-92
2022/11/10 10:42:49;;;;;;;4.45;2.80;;;;;;;31.00;22.96;101760.53;6257200;22;20071;-93
2022/11/10 10:45:16;;;;;;;3.60;2.60;;;;;;;30.08;24.28;101791.25;6297948;22;20006;-92
2022/11/10 10:47:51;;;;;;;3.30;2.20;;;;;;;30.04;23.88;101761.53;6338842;22;20030;-94
2022/11/10 10:50:36;;;;;;;3.35;2.28;;;;;;;30.04;24.38;101794.81;6293361;22;20062;-93
2022/11/10 10:53:29;;;;;;;3.00;2.00;;;;;;;28.88;25.62;101748.94;6347220;22;20002;-94
2022/11/10 10:56:12;;;;;;;4.18;2.53;;;;;;;30.81;24.12;101793.44;6345939;22;20010;-94
2022/11/10 10:59:04;;;;;;;3.75;2.30;;;;;;;30.31;24.22;101777.31;6328057;22;20007;-93
2022/11/10 11:01:37;;;;;;;4.47;2.22;;;;;;;30.57;23.67;101773.59;6273151;22;20007;-94
2022/11/10 11:04:26;;;;;;;6.50;2.33;;;;;;;31.07;23.41;101763.88;6324208;22;20006;-95
2022/11/10 11:07:01;;;;;;;4.10;2.67;;;;;;;31.09;23.45;101775.56;6257022;22;20036;-93
2022/11/10 11:09:52;;;;;;;4.30;2.50;;;;;;;31.37;23.06;101758.66;6284212;22;20060;-94
2022/11/10 11:12:36;;;;;;;4.65;2.10;;;;;;;31.43;22.68;101743.72;6317430;22;20094;-94
2022/11/10 11:15:28;;;;;;;3.63;2.50;;;;;;;30.64;23.61;101726.19;6342932;22;20435;-93
2022/11/10 11:18:01;;;;;;;3.35;2.40;;;;;;;31.54;23.07;101757.34;6288035;22;20017;-93
2022/11/10 11:21:06;;;;;;;4.55;1.92;;;;;;;31.64;22.76;101764.88;6286652;22;20006;-95
2022/11/10 11:23:59;;;;;;;6.40;2.78;;;;;;;32.30;22.53;101775.16;6337406;22;20014;-94
2022/11/10 11:26:57;;;;;;;3.53;1.90;;;;;;;29.32;25.12;101760.84;6278290;22;20025;-94
2022/11/10 11:29:37;;;;;;;7.80;2.28;;;;;;;28.42;26.39;101774.88;6315539;22;20007;-91
2022/11/10 11:32:32;;;;;;;2.88;1.85;;;;;;;28.99;25.57;101772.91;6313045;22;20014;-94
2022/11/10 11:35:03;;;;;;;3.42;1.85;;;;;;;28.01;27.04;101770.63;6312464;22;20060;-92
2022/11/10 11:37:47;;;;;;;2.42;1.90;;;;;;;26.74;28.22;101722.88;6315515;22;20037;-94
2022/11/10 11:40:44;;;;;;;2.60;2.00;;;;;;;26.93;28.79;101762.19;6353624;22;20003;-93
2022/11/10 11:43:50;;;;;;;3.45;2.30;;;;;;;26.81;28.98;101772.38;6309834;22;20023;-91
2022/11/10 11:46:43;;;;;;;4.75;2.47;;;;;;;25.52;31.30;101773.91;6311693;22;20007;-93
2022/11/10 11:49:32;;;;;;;4.05;1.85;;;;;;;24.99;32.38;101775.38;6282099;22;20007;-93
2022/11/10 11:52:07;;;;;;;5.85;2.30;;;;;;;24.94;32.33;101778.00;6287266;22;20196;-92
2022/11/10 11:55:11;;;;;;;5.72;2.10;;;;;;;24.92;32.50;101779.28;6278714;22;20017;-91
2022/11/10 11:57:58;;;;;;;4.43;2.05;;;;;;;23.38;34.98;101744.84;6303813;22;20017;-89
2022/11/10 12:00:26;;;;;;;2.97;2.13;;;;;;;22.79;35.96;101745.94;6279713;22;20431;-92
2022/11/10 12:03:41;;;;;;;4.88;2.20;;;;;;;21.86;38.62;101778.84;6307073;22;20317;-91
2022/11/10 12:06:45;;;;;;;4.60;2.47;;;;;;;20.92;40.32;101785.03;6200540;22;20461;-91
2022/11/10 12:09:46;;;;;;;3.65;2.35;;;;;;;20.59;40.73;101767.41;6212492;23;20115;-91
2022/11/10 12:12:23;;;;;;;5.50;2.40;;;;;;;20.20;42.13;101787.03;6258199;22;20007;-91
2022/11/10 12:14:55;;;;;;;3.70;2.10;;;;;;;19.63;43.50;101766.13;6305982;22;20082;-90
2022/11/10 12:17:39;;;;;;;3.35;2.30;;;;;;;19.63;44.06;101782.50;6306097;22;20017;-91
2022/11/10 12:20:36;;;;;;;3.85;2.45;;;;;;;19.45;44.66;101782.91;6306254;22;20063;-90
2022/11/10 12:23:12;;;;;;;5.95;2.78;;;;;;;19.73;44.28;101783.88;6304986;22;20367;-92
2022/11/10 12:25:44;;;;;;;;;;;;;;;19.57;44.27;101784.97;6278296;22;20450;-91
2022/11/10 12:28:17;;;;;;;4.88;2.70;;;;;;;19.24;45.33;101781.00;6280336;22;19918;-89
2022/11/10 12:30:43;;;;;;;3.78;2.50;;;;;;;19.26;45.37;101754.38;6323739;22;20023;-92
2022/11/10 12:33:24;;;;;;;;;;;;;;;19.43;45.09;101782.25;6293748;22;20011;-91
2022/11/10 12:35:49;;;;;;;3.80;2.65;;;;;;;18.66;46.36;101765.34;6314001;22;19914;-92
2022/11/10 12:38:35;;;;;;;;;;;;;;;18.53;47.49;101795.91;6309026;22;20007;-92
2022/11/10 12:41:02;;;;;;;4.55;2.90;;;;;;;17.85;48.64;101754.19;6307589;22;20002;-91
2022/11/10 12:43:33;;;;;;;4.28;2.80;;;;;;;17.35;50.09;101760.97;6260226;22;20019;-90
2022/11/10 12:46:02;;;;;;;6.72;3.28;;;;;;;17.66;49.28;101758.22;6294902;22;20010;-91
2022/11/10 12:48:32;;;;;;;4.95;3.10;;;;;;;17.69;49.04;101754.28;6240823;22;20014;-91
2022/11/10 12:51:04;;;;;;;4.50;2.63;;;;;;;17.33;50.77;101787.47;6255158;22;20014;-91
2022/11/10 12:53:36;;;;;;;4.53;2.90;;;;;;;17.72;50.86;101808.31;6303882;22;20003;-90
2022/11/10 12:56:20;;;;;;;7.18;3.63;;;;;;;17.44;50.67;101765.34;6279360;22;20144;-89
2022/11/10 12:58:46;;;;;;;5.03;2.67;;;;;;;17.47;51.23;101778.56;6279320;22;20018;-91
2022/11/10 13:01:12;;;;;;;;;;;;;;;17.47;51.73;101805.75;6253810;22;20011;-91
2022/11/10 13:03:39;;;;;;;4.38;2.63;;;;;;;17.18;51.95;101805.56;6303983;22;19917;-91
2022/11/10 13:06:06;;;;;;;4.32;2.78;;;;;;;17.17;51.24;101790.28;6253798;22;20003;-91
2022/11/10 13:08:40;;;;;;;5.68;2.33;;;;;;;17.21;52.34;101811.50;6228656;22;20062;-92
2022/11/10 13:11:12;;;;;;;3.67;2.50;;;;;;;16.70;52.81;101780.25;6306384;22;20405;-92
2022/11/10 13:13:44;;;;;;;5.13;3.35;;;;;;;16.85;53.59;101814.66;6310432;22;20000;-91
2022/11/10 13:16:10;;;;;;;4.40;2.85;;;;;;;16.29;54.73;101796.59;6317198;22;20003;-90
2022/11/10 13:18:50;;;;;;;5.75;3.20;;;;;;;16.55;54.59;101827.13;6304884;22;20332;-89
2022/11/10 13:21:15;;;;;;;4.18;3.13;;;;;;;16.18;54.95;101781.53;6322137;22;20033;-91
2022/11/10 13:23:47;;;;;;;6.32;3.10;;;;;;;16.31;55.49;101818.97;6281312;22;20008;-91
2022/11/10 13:26:39;;;;;;;7.07;3.00;;;;;;;16.34;55.76;101821.34;6311231;22;20056;-93
2022/11/10 13:29:42;;;;;;;5.28;3.17;;;;;;;16.23;56.85;101817.97;6309044;22;20071;-94
2022/11/10 13:35:38;;;;;;;5.07;3.17;;;;;;;16.17;56.56;101810.50;6309179;22;20006;-93
2022/11/10 13:51:41;;;;;;;6.68;2.72;;;;;;;15.36;59.40;101828.31;6332736;22;20018;-91
2022/11/10 13:58:11;;;;;;;61.45;6.22;;;;;;;15.52;60.20;101821.22;6330314;22;20019;-94
2022/11/10 14:01:15;;;;;;;6.65;3.10;;;;;;;15.48;59.50;101811.75;6317727;22;20050;-92
2022/11/10 14:03:58;;;;;;;5.65;3.03;;;;;;;15.07;59.48;101754.72;6311459;22;20019;-94
2022/11/10 14:06:47;;;;;;;6.75;3.28;;;;;;;15.41;59.44;101817.81;6291367;22;20007;-93
2022/11/10 14:09:46;;;;;;;4.97;2.80;;;;;;;15.19;59.82;101818.41;6286382;22;20730;-94
2022/11/10 14:15:46;;;;;;;7.68;3.95;;;;;;;15.23;59.98;101825.19;6305415;22;20415;-91
2022/11/10 14:18:23;;;;;;;4.35;2.70;;;;;;;14.99;60.37;101821.38;6305803;22;20009;-90
2022/11/10 14:20:59;;;;;;;5.20;3.25;;;;;;;14.88;60.44;101794.56;6284016;22;20013;-90
2022/11/10 14:23:34;;;;;;;5.85;3.25;;;;;;;15.11;60.02;101826.50;6280232;22;20451;-91
2022/11/10 14:26:06;;;;;;;4.22;2.83;;;;;;;15.03;60.49;101827.31;6307109;22;20003;-89
2022/11/10 14:28:40;;;;;;;4.97;3.05;;;;;;;14.86;60.62;101807.41;6282637;22;20003;-90
2022/11/10 14:31:15;;;;;;;4.78;3.35;;;;;;;14.85;60.97;101821.97;6255116;22;20070;-90
2022/11/10 14:33:54;;;;;;;6.72;3.58;;;;;;;14.46;61.23;101781.78;6316855;22;20003;-92
2022/11/10 14:36:22;;;;;;;6.13;3.58;;;;;;;14.55;61.11;101799.81;6315470;22;20003;-91
2022/11/10 14:38:48;;;;;;;5.97;3.75;;;;;;;14.46;61.15;101797.16;6293046;22;20023;-90
2022/11/10 14:41:20;;;;;;;7.50;3.40;;;;;;;14.49;61.41;101822.06;6316643;22;20007;-92
2022/11/10 14:44:12;;;;;;;5.90;3.35;;;;;;;14.49;61.73;101832.91;6285522;22;20022;-90
2022/11/10 14:46:38;;;;;;;6.53;3.80;;;;;;;14.37;62.24;101839.53;6282548;22;20018;-90
2022/11/10 14:49:09;;;;;;;6.45;3.63;;;;;;;14.24;62.38;101814.78;6313719;22;20007;-90
2022/11/10 14:51:35;;;;;;;5.55;3.20;;;;;;;14.06;62.70;101802.09;6287501;22;20106;-91
2022/11/10 14:54:29;;;;;;;9.73;3.95;;;;;;;14.00;62.72;101791.06;6294889;22;20003;-94
2022/11/10 14:57:12;;;;;;;6.38;4.53;;;;;;;13.92;63.12;101797.25;6314727;22;20420;-92
2022/11/10 14:59:41;;;;;;;14.48;7.93;;;;;;;14.06;63.39;101837.25;6288564;22;20019;-93
2022/11/10 15:02:42;;;;;;;6.93;4.40;;;;;;;13.91;63.52;101817.19;6289169;22;20014;-92
2022/11/10 15:05:39;;;;;;;8.15;3.88;;;;;;;13.81;64.01;101814.53;6287501;22;20086;-94
2022/11/10 15:08:07;;;;;;;11.13;5.18;;;;;;;13.65;64.24;101801.75;6312847;22;20015;-94
2022/11/10 15:10:59;;;;;;;6.90;4.20;;;;;;;13.89;64.41;101848.94;6285461;22;20015;-95
2022/11/10 15:13:30;;;;;;;;;;;;;;;13.82;64.81;101853.25;6313829;22;20007;-94
2022/11/10 15:16:28;;;;;;;13.20;6.05;;;;;;;13.71;65.52;101843.50;6310174;22;19986;-93
2022/11/10 15:19:17;;;;;;;5.53;3.47;;;;;;;13.46;66.20;101831.56;6311601;22;20003;-94
2022/11/10 15:21:48;;;;;;;7.25;4.50;;;;;;;13.23;65.71;101793.31;6319792;22;20011;-92
2022/11/10 15:24:16;;;;;;;9.50;5.00;;;;;;;13.21;65.79;101792.59;6324661;22;20002;-93
2022/11/10 15:26:46;;;;;;;9.98;5.18;;;;;;;13.55;66.10;101849.56;6270252;22;19995;-93
2022/11/10 15:29:20;;;;;;;8.60;5.50;;;;;;;13.38;66.30;101831.50;6316899;22;20025;-95
2022/11/10 15:31:51;;;;;;;11.73;5.90;;;;;;;13.30;66.42;101825.00;6293507;22;20081;-94
2022/11/10 15:34:31;;;;;;;10.15;5.60;;;;;;;13.18;66.77;101839.66;6314428;22;20041;-92
2022/11/10 15:37:26;;;;;;;8.38;4.32;;;;;;;13.43;66.72;101867.84;6318733;22;20014;-94
2022/11/10 15:39:53;;;;;;;8.98;5.13;;;;;;;13.10;66.81;101824.19;6315796;22;20008;-92
2022/11/10 15:42:22;;;;;;;6.70;4.38;;;;;;;13.14;67.10;101832.84;6309932;22;20025;-92
2022/11/10 15:45:29;;;;;;;10.82;5.82;;;;;;;13.30;67.04;101868.19;6256110;22;20461;-90
2022/11/10 15:48:27;;;;;;;11.98;5.68;;;;;;;13.27;67.26;101879.31;6310959;22;20455;-92
2022/11/10 15:54:40;;;;;;;15.95;9.77;;;;;;;12.96;67.70;101850.84;6316768;22;20010;-91
2022/11/10 15:57:42;;;;;;;22.25;7.90;;;;;;;13.12;68.03;101880.75;6313646;22;20014;-95
2022/11/10 16:00:38;;;;;;;16.50;8.75;;;;;;;12.89;68.03;101843.31;6316089;22;20007;-94
2022/11/10 16:03:48;;;;;;;13.60;7.50;;;;;;;13.05;68.26;101880.50;6287022;22;20470;-93
2022/11/10 16:06:48;;;;;;;13.55;7.03;;;;;;;12.93;68.45;101878.13;6314294;22;20033;-95
2022/11/10 16:09:23;;;;;;;13.40;7.30;;;;;;;12.86;68.31;101880.56;6286179;22;20015;-94
2022/11/10 16:12:14;;;;;;;24.63;7.85;;;;;;;12.69;68.50;101860.56;6284537;22;20344;-93
2022/11/10 16:18:15;;;;;;;14.35;8.25;;;;;;;12.60;68.69;101842.56;6311992;22;20071;-92
2022/11/10 16:20:48;;;;;;;19.83;10.77;;;;;;;12.77;68.62;101881.44;6288336;22;20012;-93
2022/11/10 16:23:36;;;;;;;17.40;7.30;;;;;;;12.62;69.08;101854.06;6307316;22;20150;-92
2022/11/10 16:26:24;;;;;;;14.77;8.30;;;;;;;12.44;69.55;101844.00;6284538;22;20102;-92
2022/11/10 16:32:16;;;;;;;14.60;7.68;;;;;;;12.60;70.55;101902.75;6313679;22;20033;-93
2022/11/10 16:34:52;;;;;;;21.08;9.25;;;;;;;12.35;70.38;101850.25;6312207;22;20007;-93
2022/11/10 16:37:24;;;;;;;16.60;7.70;;;;;;;12.32;70.87;101869.44;6317525;22;20030;-92
2022/11/10 16:40:38;;;;;;;15.48;8.48;;;;;;;12.20;71.00;101851.69;6318354;22;20066;-96
2022/11/10 16:46:33;;;;;;;26.70;10.30;;;;;;;12.43;71.27;101907.03;6327639;22;20018;-95
2022/11/10 16:49:08;;;;;;;30.45;12.55;;;;;;;12.02;70.75;101830.84;6289493;22;20659;-91
2022/11/10 16:54:31;;;;;;;27.17;12.80;;;;;;;12.36;70.82;101888.84;6356996;22;20024;-93
2022/11/10 16:57:07;;;;;;;18.25;9.48;;;;;;;12.38;71.50;101901.19;6355625;22;20042;-92
2022/11/10 16:59:44;;;;;;;26.77;10.93;;;;;;;12.08;71.11;101856.38;6328392;22;19998;-93
2022/11/10 17:05:50;;;;;;;19.27;10.15;;;;;;;12.31;71.46;101908.16;6280598;22;20220;-94
2022/11/10 17:08:24;;;;;;;22.15;11.20;;;;;;;12.13;71.23;101893.69;6312951;22;20039;-91
2022/11/10 17:11:04;;;;;;;26.02;9.00;;;;;;;11.88;72.69;101873.53;6274140;22;20105;-92
2022/11/10 17:13:31;;;;;;;20.77;10.52;;;;;;;11.98;72.41;101899.47;6287930;22;20034;-90